Terminal Aerodrome Forecast
Issued by NWS Pueblo, CO

Home | Current Version | Previous Version | Text Only | Print | Product List | Glossary On
Versions: 1 2 3 4 5 6 7 8 9 10 11 12 13 14 15 16 17 18 19 20 21 22 23 24 25 26 27 28 29 30
000
FTUS45 KPUB 091138
TAFCOS
TAF
KCOS 091138Z 0912/1012 36007KT P6SM SCT250
     FM091700 17007KT P6SM SCT250
     FM092000 18010KT P6SM SCT120 SCT250
     FM100100 03008KT P6SM SCT120 BKN200
     FM100900 34010KT P6SM SCT120 BKN150=

USA.gov is the U.S. government's official web portal to all federal, state and local government web resources and services.